Time;durP1;ratioP1;P1;durP2;ratioP2;P2;SDS_P1;SDS_P2;PMS_P1;PMS_P2;Temp;Humidity;BMP_temperature;BMP_pressure;BME280_temperature;BME280_humidity;BME280_pressure;Samples;Min_cycle;Max_cycle;Signal;HPM_P1;HPM_P2
2022/11/28 00:01:29;;;;;;;6.85;3.55;;;;;;;6.39;52.91;100783.22;5006684;28;20049;-71
2022/11/28 00:03:57;;;;;;;6.18;3.95;;;;;;;6.39;51.57;100788.66;5006910;28;20046;-71
2022/11/28 00:06:26;;;;;;;6.85;4.22;;;;;;;6.39;51.40;100794.09;5012057;28;20037;-71
2022/11/28 00:08:54;;;;;;;6.00;3.67;;;;;;;6.39;51.32;100798.66;5005597;28;20053;-71
2022/11/28 00:11:22;;;;;;;5.72;3.67;;;;;;;6.38;51.66;100794.19;5006644;28;20103;-70
2022/11/28 00:13:50;;;;;;;6.35;4.03;;;;;;;6.39;51.61;100793.22;5004830;28;20049;-71
2022/11/28 00:16:20;;;;;;;6.75;3.80;;;;;;;6.38;51.46;100784.19;5006346;28;20429;-71
2022/11/28 00:18:51;;;;;;;5.90;4.18;;;;;;;6.39;51.72;100788.66;4999431;28;20045;-70
2022/11/28 00:21:19;;;;;;;5.30;3.20;;;;;;;6.39;51.52;100785.06;5001619;28;20054;-71
2022/11/28 00:23:48;;;;;;;6.05;4.13;;;;;;;6.36;51.73;100786.16;5004984;28;20053;-71
2022/11/28 00:26:19;;;;;;;5.13;3.50;;;;;;;6.38;51.57;100776.03;5002738;28;20046;-71
2022/11/28 00:28:47;;;;;;;5.65;4.03;;;;;;;6.37;51.88;100774.28;4997582;28;20042;-71
2022/11/28 00:31:16;;;;;;;6.28;3.75;;;;;;;6.37;51.88;100766.13;5004945;28;20513;-71
2022/11/28 00:33:44;;;;;;;5.60;3.55;;;;;;;6.38;51.80;100757.00;5005415;28;20049;-71
2022/11/28 00:36:14;;;;;;;8.20;4.22;;;;;;;6.39;51.71;100766.91;5005138;28;20554;-70
2022/11/28 00:38:42;;;;;;;5.68;3.53;;;;;;;6.38;51.94;100756.13;5008883;28;20037;-71
2022/11/28 00:41:13;;;;;;;5.30;3.65;;;;;;;6.39;52.02;100763.31;5018771;28;20038;-71
2022/11/28 00:43:42;;;;;;;6.68;4.30;;;;;;;6.39;51.91;100750.59;5007448;28;20133;-71
2022/11/28 00:46:10;;;;;;;5.15;3.42;;;;;;;6.40;52.01;100748.75;5011958;28;20112;-71
2022/11/28 00:48:38;;;;;;;6.10;3.97;;;;;;;6.39;51.74;100739.72;5009159;28;20306;-71
2022/11/28 00:51:07;;;;;;;7.93;3.88;;;;;;;6.40;51.77;100738.75;4998749;28;20093;-71
2022/11/28 00:53:36;;;;;;;5.55;3.80;;;;;;;6.41;51.85;100742.34;5019928;28;20038;-71
2022/11/28 00:56:06;;;;;;;5.70;3.47;;;;;;;6.39;51.89;100736.13;5010345;28;20526;-71
2022/11/28 00:58:35;;;;;;;5.85;4.25;;;;;;;6.38;52.01;100731.66;5001822;28;20461;-71
2022/11/28 01:01:08;;;;;;;5.75;3.90;;;;;;;6.38;52.32;100721.66;4984923;28;20053;-71
2022/11/28 01:03:36;;;;;;;5.28;3.65;;;;;;;6.34;52.02;100712.00;4984274;28;20077;-71
2022/11/28 01:06:04;;;;;;;6.05;3.65;;;;;;;6.35;51.96;100712.88;4990201;28;20097;-70
2022/11/28 01:08:32;;;;;;;6.22;3.70;;;;;;;6.34;52.10;100692.97;4989908;28;20066;-71
2022/11/28 01:11:01;;;;;;;5.85;3.40;;;;;;;6.33;52.22;100718.44;4985723;28;20082;-71
2022/11/28 01:13:30;;;;;;;5.72;3.95;;;;;;;6.32;52.15;100704.94;4989315;28;20038;-70
2022/11/28 01:15:58;;;;;;;6.03;3.63;;;;;;;6.31;52.35;100714.06;5016256;28;20045;-71
2022/11/28 01:18:26;;;;;;;8.50;4.20;;;;;;;6.30;52.28;100706.88;5002333;28;20121;-71
2022/11/28 01:20:54;;;;;;;6.25;3.72;;;;;;;6.30;52.51;100709.59;5007699;28;20050;-71
2022/11/28 01:23:22;;;;;;;6.80;3.85;;;;;;;6.29;52.31;100700.59;5022960;28;20132;-71
2022/11/28 01:25:49;;;;;;;6.57;4.07;;;;;;;6.29;52.43;100684.28;5009702;28;20568;-70
2022/11/28 01:28:19;;;;;;;6.10;4.07;;;;;;;6.30;52.52;100715.03;5007969;28;20121;-70
2022/11/28 01:30:46;;;;;;;7.00;3.97;;;;;;;6.29;52.65;100707.88;5012376;28;20349;-70
2022/11/28 01:33:14;;;;;;;5.63;3.80;;;;;;;6.27;52.44;100712.56;5009910;28;20086;-70
2022/11/28 01:35:42;;;;;;;6.05;3.60;;;;;;;6.29;52.83;100714.19;5009253;28;20430;-71
2022/11/28 01:38:10;;;;;;;7.07;3.80;;;;;;;6.30;52.38;100709.59;5008972;28;20589;-70
2022/11/28 01:40:44;;;;;;;6.63;3.80;;;;;;;6.31;53.77;100708.63;5014018;28;20164;-70
2022/11/28 01:43:12;;;;;;;5.78;3.92;;;;;;;6.30;52.71;100706.88;5009586;28;20440;-71
2022/11/28 01:45:42;;;;;;;5.88;3.83;;;;;;;6.32;52.72;100700.38;5020426;28;20575;-71
2022/11/28 01:48:12;;;;;;;4.70;3.40;;;;;;;6.32;52.80;100691.34;5008521;28;20045;-70
2022/11/28 01:50:42;;;;;;;6.20;3.80;;;;;;;6.32;52.51;100700.38;5017754;28;20060;-70
2022/11/28 01:53:10;;;;;;;6.43;3.75;;;;;;;6.32;52.41;100694.94;5025794;28;20430;-70
2022/11/28 01:55:42;;;;;;;6.15;4.07;;;;;;;6.33;52.74;100695.81;5007655;28;20044;-71
2022/11/28 01:58:11;;;;;;;5.80;3.80;;;;;;;6.32;52.75;100686.78;5007383;28;20070;-71
2022/11/28 02:00:41;;;;;;;5.55;3.63;;;;;;;6.34;52.62;100689.41;5006681;28;20313;-70
2022/11/28 02:03:14;;;;;;;6.35;4.13;;;;;;;6.34;53.02;100692.13;5007489;28;20061;-70
2022/11/28 02:05:42;;;;;;;6.03;3.83;;;;;;;6.34;52.70;100681.25;5007554;28;20594;-70
2022/11/28 02:08:10;;;;;;;6.65;3.95;;;;;;;6.33;52.47;100677.66;5007899;28;20052;-70
2022/11/28 02:11:04;;;;;;;6.65;3.90;;;;;;;6.36;53.30;100669.28;5010799;28;20042;-71
2022/11/28 02:13:39;;;;;;;5.55;3.80;;;;;;;6.34;52.95;100657.66;5010889;28;20413;-71
2022/11/28 02:16:30;;;;;;;6.53;3.70;;;;;;;6.37;53.47;100659.25;5008085;28;20069;-71
2022/11/28 02:19:22;;;;;;;5.97;3.78;;;;;;;6.37;53.42;100667.41;4997313;28;20037;-70
2022/11/28 02:22:00;;;;;;;4.93;3.60;;;;;;;6.39;53.16;100665.44;5005129;28;20050;-71
2022/11/28 02:25:16;;;;;;;6.47;3.72;;;;;;;6.31;53.43;100676.88;5001453;28;20133;-71
2022/11/28 02:28:29;;;;;;;6.45;4.15;;;;;;;6.34;53.56;100675.81;4956590;28;20043;-71
2022/11/28 02:31:06;;;;;;;6.75;4.13;;;;;;;6.35;53.12;100672.13;4965642;28;20047;-71
2022/11/28 02:33:38;;;;;;;6.22;3.63;;;;;;;6.36;52.88;100677.44;5009106;28;20050;-71
2022/11/28 02:36:12;;;;;;;6.85;4.10;;;;;;;6.39;53.08;100671.75;5009629;28;20569;-71
2022/11/28 02:38:57;;;;;;;6.03;4.10;;;;;;;6.40;53.16;100673.50;5007820;28;20048;-70
2022/11/28 02:41:33;;;;;;;6.78;4.30;;;;;;;6.40;53.18;100684.38;5009106;28;20379;-71
2022/11/28 02:44:10;;;;;;;6.22;3.70;;;;;;;6.41;53.43;100685.25;5008241;28;20057;-71
2022/11/28 02:46:47;;;;;;;7.72;4.57;;;;;;;6.42;53.14;100678.84;5011839;28;20033;-71
2022/11/28 02:49:21;;;;;;;6.38;4.13;;;;;;;6.43;53.24;100675.13;5008020;28;20057;-71
2022/11/28 02:51:55;;;;;;;7.53;4.20;;;;;;;6.44;53.33;100677.75;5001893;28;20114;-71
2022/11/28 02:54:25;;;;;;;7.03;4.28;;;;;;;6.44;53.01;100671.44;5003253;28;20133;-71
2022/11/28 02:56:54;;;;;;;6.05;4.30;;;;;;;6.44;52.71;100668.72;5008691;28;20054;-71
2022/11/28 02:59:44;;;;;;;6.60;4.20;;;;;;;6.48;53.67;100662.06;5007405;28;20571;-70
2022/11/28 03:02:17;;;;;;;5.90;4.28;;;;;;;6.45;53.26;100657.72;5008354;28;20049;-71
2022/11/28 03:04:50;;;;;;;;;;;;;;;6.21;53.98;100659.50;5007822;28;20050;-71
2022/11/28 03:07:31;;;;;;;6.15;3.50;;;;;;;6.41;53.61;100661.66;5004338;28;19922;-71
2022/11/28 03:10:21;;;;;;;6.40;4.28;;;;;;;6.42;53.54;100655.25;5004200;28;20057;-71
2022/11/28 03:12:57;;;;;;;7.00;4.55;;;;;;;6.42;53.35;100657.09;5009421;28;20529;-71
2022/11/28 03:15:33;;;;;;;6.38;3.92;;;;;;;6.42;53.55;100662.53;5000396;28;20451;-71
2022/11/28 03:18:11;;;;;;;7.47;4.43;;;;;;;6.41;53.18;100664.38;4998506;28;20106;-71
2022/11/28 03:20:47;;;;;;;5.93;4.03;;;;;;;6.40;53.61;100654.47;5008256;28;20053;-71
2022/11/28 03:23:19;;;;;;;6.68;4.75;;;;;;;6.38;53.18;100647.41;5016233;28;20046;-71
2022/11/28 03:25:57;;;;;;;6.63;3.92;;;;;;;6.39;53.53;100650.00;5013562;28;20042;-71
2022/11/28 03:28:31;;;;;;;7.57;3.92;;;;;;;6.35;53.22;100648.53;5013233;28;20140;-71
2022/11/28 03:31:02;;;;;;;6.75;4.18;;;;;;;6.33;53.00;100650.47;5017776;28;20529;-71
2022/11/28 03:33:34;;;;;;;6.43;4.28;;;;;;;6.30;53.23;100653.41;5006065;28;20038;-71
2022/11/28 03:36:08;;;;;;;6.78;4.40;;;;;;;6.31;53.82;100643.41;5003736;28;20042;-71
2022/11/28 03:38:41;;;;;;;6.60;4.35;;;;;;;6.30;53.31;100644.38;5006894;28;20038;-71
2022/11/28 03:41:15;;;;;;;7.50;4.72;;;;;;;6.28;53.41;100639.06;5010197;28;20049;-71
2022/11/28 03:43:49;;;;;;;6.72;4.40;;;;;;;6.28;53.21;100646.38;5003406;28;20810;-71
2022/11/28 03:46:20;;;;;;;6.07;4.60;;;;;;;6.26;53.40;100642.88;5004841;28;20045;-71
2022/11/28 03:48:52;;;;;;;7.45;4.68;;;;;;;6.26;53.65;100648.31;5002432;28;20145;-71
2022/11/28 03:51:28;;;;;;;7.22;4.38;;;;;;;6.22;53.83;100638.63;5009561;28;20038;-71
2022/11/28 03:54:00;;;;;;;6.60;4.32;;;;;;;6.22;53.56;100641.34;5006805;28;20052;-71
2022/11/28 03:56:39;;;;;;;5.82;4.18;;;;;;;6.21;53.89;100636.91;5006825;28;20076;-71
2022/11/28 03:59:13;;;;;;;6.38;4.10;;;;;;;6.21;53.52;100631.47;5006620;28;20426;-71
2022/11/28 04:01:51;;;;;;;6.28;3.88;;;;;;;6.21;53.95;100632.34;5044333;22;20046;-73
2022/11/28 04:04:24;;;;;;;6.00;4.13;;;;;;;6.20;53.52;100641.47;5045376;28;20464;-72
2022/11/28 04:06:58;;;;;;;6.25;4.47;;;;;;;6.19;54.06;100630.72;5056567;28;20509;-72
2022/11/28 04:09:39;;;;;;;6.30;4.28;;;;;;;6.19;54.17;100619.84;5032453;28;20044;-72
2022/11/28 04:12:14;;;;;;;7.88;4.80;;;;;;;6.18;53.96;100629.84;5046332;28;20045;-72
2022/11/28 04:14:47;;;;;;;6.15;4.00;;;;;;;6.18;53.84;100629.84;5038706;28;20091;-72
2022/11/28 04:17:19;;;;;;;6.55;4.57;;;;;;;6.18;53.64;100635.28;5042111;28;20144;-72
2022/11/28 04:19:51;;;;;;;6.20;4.00;;;;;;;6.18;53.73;100637.13;5041101;28;20052;-73
2022/11/28 04:22:24;;;;;;;6.40;4.50;;;;;;;6.19;54.01;100647.03;5044247;28;20047;-72
2022/11/28 04:24:54;;;;;;;;;;;;;;;5.94;54.93;100640.66;5046075;28;20103;-72
2022/11/28 04:27:27;;;;;;;5.97;3.95;;;;;;;6.15;53.84;100629.19;5045475;28;20400;-73
2022/11/28 04:29:59;;;;;;;6.55;4.00;;;;;;;6.18;53.57;100634.41;5042839;28;20607;-72
2022/11/28 04:32:31;;;;;;;7.07;4.65;;;;;;;6.18;53.65;100629.00;5045465;28;20377;-73
2022/11/28 04:35:03;;;;;;;5.05;3.90;;;;;;;6.19;53.76;100639.75;5044054;28;20049;-72
2022/11/28 04:37:35;;;;;;;6.03;4.00;;;;;;;6.18;53.95;100648.00;5045036;28;20048;-72
2022/11/28 04:40:05;;;;;;;7.13;4.00;;;;;;;6.16;53.73;100645.41;5047843;28;20136;-72
2022/11/28 04:42:39;;;;;;;5.63;3.80;;;;;;;6.19;53.80;100658.78;5047371;28;20045;-73
2022/11/28 04:45:11;;;;;;;7.10;4.30;;;;;;;6.19;53.82;100663.34;5044250;28;20547;-72
2022/11/28 04:47:39;;;;;;;6.25;4.10;;;;;;;6.17;53.83;100649.84;5037269;28;20281;-72
2022/11/28 04:50:09;;;;;;;9.75;4.45;;;;;;;6.18;53.59;100658.88;5035961;28;20036;-73
2022/11/28 04:52:46;;;;;;;6.93;5.03;;;;;;;6.19;54.05;100660.63;5057561;28;20069;-72
2022/11/28 04:55:24;;;;;;;8.23;4.60;;;;;;;6.20;54.16;100667.78;5035692;28;20045;-72
2022/11/28 04:57:57;;;;;;;7.50;4.75;;;;;;;6.19;53.63;100660.63;5047213;28;20053;-71
2022/11/28 05:00:26;;;;;;;7.28;4.25;;;;;;;6.18;53.76;100656.16;5049069;28;20470;-71
2022/11/28 05:02:56;;;;;;;6.80;4.30;;;;;;;6.19;53.71;100656.06;5050156;28;20079;-71
2022/11/28 05:05:27;;;;;;;8.60;5.05;;;;;;;6.18;53.79;100646.16;5046675;28;20045;-72
2022/11/28 05:07:58;;;;;;;7.55;4.70;;;;;;;6.20;54.12;100651.50;5049129;28;20055;-72
2022/11/28 05:10:26;;;;;;;6.53;4.28;;;;;;;6.19;53.61;100657.91;5054366;28;20041;-71
2022/11/28 05:12:54;;;;;;;7.70;4.80;;;;;;;6.19;53.76;100653.34;5048024;28;20497;-72
2022/11/28 05:15:22;;;;;;;6.20;4.38;;;;;;;6.18;53.42;100654.31;5047179;28;20541;-72
2022/11/28 05:17:50;;;;;;;7.22;4.85;;;;;;;6.19;53.80;100657.91;5047142;28;20048;-71
2022/11/28 05:20:18;;;;;;;6.32;4.43;;;;;;;6.18;53.56;100657.03;5040493;28;20045;-71
2022/11/28 05:22:46;;;;;;;6.82;4.30;;;;;;;6.17;53.72;100654.41;5054832;28;20045;-72
2022/11/28 05:25:16;;;;;;;7.45;4.63;;;;;;;6.19;54.07;100666.06;5047247;28;20063;-72
2022/11/28 05:27:44;;;;;;;8.20;4.70;;;;;;;6.16;53.60;100653.56;5047966;28;20049;-72
2022/11/28 05:30:13;;;;;;;7.35;4.82;;;;;;;6.17;53.49;100663.44;5047376;28;20144;-73
2022/11/28 05:32:41;;;;;;;7.68;4.80;;;;;;;6.16;53.53;100652.69;5042298;28;20502;-71
2022/11/28 05:35:09;;;;;;;7.38;4.93;;;;;;;6.16;53.81;100649.97;5046711;28;20041;-72
2022/11/28 05:37:38;;;;;;;6.15;4.07;;;;;;;6.15;53.69;100656.38;5049855;28;20102;-72
2022/11/28 05:40:07;;;;;;;7.20;4.88;;;;;;;6.15;53.57;100648.22;5046063;28;20060;-72
2022/11/28 05:42:36;;;;;;;7.53;4.75;;;;;;;6.15;53.84;100640.06;5047673;28;20094;-71
2022/11/28 05:45:04;;;;;;;8.52;4.68;;;;;;;6.14;53.58;100660.94;5044347;28;20052;-71
2022/11/28 05:47:33;;;;;;;8.23;5.30;;;;;;;6.15;53.50;100651.81;5047706;28;20095;-71
2022/11/28 05:50:01;;;;;;;7.97;4.72;;;;;;;6.16;53.71;100649.97;5048018;28;20520;-71
2022/11/28 05:52:31;;;;;;;6.70;4.30;;;;;;;6.16;53.74;100648.13;5047686;28;20504;-71
2022/11/28 05:55:00;;;;;;;7.53;4.93;;;;;;;6.17;53.67;100659.84;5046655;28;20051;-72
2022/11/28 05:57:30;;;;;;;7.53;4.68;;;;;;;6.16;53.73;100652.69;5047613;28;20116;-73
2022/11/28 06:00:00;;;;;;;8.18;4.65;;;;;;;6.18;53.50;100656.16;5046668;28;20056;-72
2022/11/28 06:02:27;;;;;;;7.57;4.65;;;;;;;6.17;53.45;100648.97;5046131;28;20049;-71
2022/11/28 06:04:55;;;;;;;8.65;5.22;;;;;;;6.16;53.66;100642.69;5060017;28;20053;-72
2022/11/28 06:07:23;;;;;;;6.53;4.63;;;;;;;6.17;53.62;100632.69;5047994;28;20045;-71
2022/11/28 06:09:51;;;;;;;7.20;4.70;;;;;;;6.17;53.36;100625.41;5040781;28;20457;-71
2022/11/28 06:12:19;;;;;;;7.40;5.18;;;;;;;6.17;53.36;100627.25;5047633;28;20075;-71
2022/11/28 06:14:47;;;;;;;7.60;4.90;;;;;;;6.17;53.56;100614.53;5045962;28;20049;-72
2022/11/28 06:17:16;;;;;;;8.52;5.53;;;;;;;6.17;53.48;100611.81;5045347;28;20049;-72
2022/11/28 06:19:44;;;;;;;6.82;4.95;;;;;;;6.16;53.34;100623.66;5047666;28;20044;-72
2022/11/28 06:22:12;;;;;;;7.32;5.15;;;;;;;6.17;53.36;100619.09;5046230;28;20422;-72
2022/11/28 06:24:40;;;;;;;6.65;4.53;;;;;;;6.17;53.36;100617.25;5045265;28;20044;-72
2022/11/28 06:27:08;;;;;;;6.90;4.50;;;;;;;6.14;53.31;100611.16;5047110;28;20041;-73
2022/11/28 06:29:36;;;;;;;7.55;4.68;;;;;;;6.17;53.35;100621.81;5047931;28;20037;-72
2022/11/28 06:32:06;;;;;;;8.40;5.30;;;;;;;6.17;53.25;100617.25;5044514;28;20170;-72
2022/11/28 06:34:38;;;;;;;6.90;4.72;;;;;;;6.19;53.48;100614.44;5041252;28;20720;-73
2022/11/28 06:37:07;;;;;;;7.25;4.85;;;;;;;6.16;53.35;100615.50;5046081;28;20055;-73
2022/11/28 06:39:35;;;;;;;9.27;5.50;;;;;;;6.17;53.62;100595.50;5045863;28;20364;-72
2022/11/28 06:42:03;;;;;;;6.82;5.18;;;;;;;6.19;53.27;100595.41;5048525;28;20064;-73
2022/11/28 06:44:31;;;;;;;6.95;4.75;;;;;;;6.18;53.25;100601.81;5047133;28;20107;-73
2022/11/28 06:46:59;;;;;;;8.30;5.10;;;;;;;6.18;53.49;100615.41;5046988;28;20107;-73
2022/11/28 06:49:27;;;;;;;6.57;4.75;;;;;;;6.19;53.26;100622.56;5062995;28;20044;-73
2022/11/28 06:51:56;;;;;;;6.82;4.80;;;;;;;6.19;53.50;100620.72;5046250;28;20053;-73
2022/11/28 06:54:24;;;;;;;8.18;5.03;;;;;;;6.19;53.50;100633.44;5042273;28;20055;-73
2022/11/28 06:56:51;;;;;;;7.38;4.68;;;;;;;6.19;53.38;100636.16;5071373;28;20362;-73
2022/11/28 06:59:19;;;;;;;6.68;4.82;;;;;;;6.19;53.35;100634.31;5026546;28;20044;-72
2022/11/28 07:01:48;;;;;;;7.95;5.05;;;;;;;6.19;53.24;100628.88;5052070;28;20456;-73
2022/11/28 07:04:16;;;;;;;7.35;5.00;;;;;;;6.19;53.64;100631.59;5045242;28;20056;-73
2022/11/28 07:06:44;;;;;;;7.40;5.05;;;;;;;6.21;53.62;100634.19;5040570;28;21583;-76
2022/11/28 07:09:13;;;;;;;7.85;4.75;;;;;;;6.22;53.52;100634.06;5044795;28;20430;-74
2022/11/28 07:11:42;;;;;;;7.57;5.38;;;;;;;6.21;53.36;100632.34;5047712;28;20048;-73
2022/11/28 07:14:10;;;;;;;8.00;5.05;;;;;;;6.22;53.59;100644.94;5043586;28;20052;-72
2022/11/28 07:16:38;;;;;;;7.30;5.00;;;;;;;6.23;53.59;100640.38;5045678;28;20045;-72
2022/11/28 07:19:06;;;;;;;7.15;5.03;;;;;;;6.24;53.42;100640.28;5045333;28;20057;-72
2022/11/28 07:21:34;;;;;;;7.13;4.90;;;;;;;6.25;53.57;100643.84;5046254;28;20072;-72
2022/11/28 07:24:02;;;;;;;7.90;5.22;;;;;;;6.24;53.58;100640.28;5023039;28;20101;-72
2022/11/28 07:26:32;;;;;;;7.57;5.05;;;;;;;6.27;53.53;100648.22;5057969;28;20401;-73
2022/11/28 07:29:00;;;;;;;7.70;5.20;;;;;;;6.26;53.58;100649.19;5045045;28;20048;-71
2022/11/28 07:31:30;;;;;;;8.63;5.72;;;;;;;6.27;53.49;100645.50;5049447;28;20044;-71
2022/11/28 07:34:00;;;;;;;6.20;4.78;;;;;;;6.29;53.64;100642.63;5036761;28;20045;-73
2022/11/28 07:36:29;;;;;;;8.52;5.05;;;;;;;6.28;53.39;100647.19;5046895;28;20036;-72
2022/11/28 07:38:59;;;;;;;8.45;5.13;;;;;;;6.30;53.63;100639.81;5018061;28;20110;-72
2022/11/28 07:41:27;;;;;;;7.90;4.93;;;;;;;6.29;53.66;100648.94;5026150;28;20033;-72
2022/11/28 07:44:00;;;;;;;7.32;5.07;;;;;;;6.32;53.84;100642.44;5020827;28;20043;-72
2022/11/28 07:46:29;;;;;;;7.28;5.18;;;;;;;6.32;53.47;100653.31;5039455;28;20343;-71
2022/11/28 07:48:57;;;;;;;8.35;5.03;;;;;;;6.32;53.55;100650.59;5040383;28;20053;-71
2022/11/28 07:51:28;;;;;;;7.72;5.28;;;;;;;6.34;53.59;100652.22;5043190;28;20044;-72
2022/11/28 07:53:56;;;;;;;6.60;4.70;;;;;;;6.33;53.45;100642.31;5044826;28;20052;-72
2022/11/28 07:56:26;;;;;;;9.00;5.80;;;;;;;6.34;53.43;100645.91;5045288;28;20041;-72
2022/11/28 07:59:12;;;;;;;9.15;5.65;;;;;;;6.35;53.58;100650.38;5045160;28;20083;-72
2022/11/28 08:01:40;;;;;;;8.48;5.30;;;;;;;6.33;53.50;100647.75;5044757;28;20428;-73
2022/11/28 08:04:09;;;;;;;7.43;5.10;;;;;;;6.35;53.60;100647.66;5044404;28;20536;-72
2022/11/28 08:06:40;;;;;;;7.55;4.88;;;;;;;6.36;53.56;100649.38;5045950;28;20355;-73
2022/11/28 08:09:08;;;;;;;7.20;4.95;;;;;;;6.36;53.78;100649.38;5048645;28;20037;-72
2022/11/28 08:11:36;;;;;;;6.95;4.68;;;;;;;6.36;53.50;100649.38;5046087;28;20533;-73
2022/11/28 08:14:04;;;;;;;7.18;4.70;;;;;;;6.37;53.54;100656.53;5042783;28;20037;-73
2022/11/28 08:16:33;;;;;;;7.13;5.20;;;;;;;6.39;53.52;100657.31;5045166;28;20449;-73
2022/11/28 08:19:02;;;;;;;7.57;5.15;;;;;;;6.37;53.56;100672.84;5050317;28;20037;-72
2022/11/28 08:21:32;;;;;;;7.40;5.05;;;;;;;6.39;53.48;100668.16;5049826;28;20421;-72
2022/11/28 08:24:01;;;;;;;8.25;5.05;;;;;;;6.40;53.69;100668.06;5049229;28;20045;-72
2022/11/28 08:26:30;;;;;;;8.32;5.05;;;;;;;6.41;53.61;100671.66;5048494;28;20048;-73
2022/11/28 08:28:59;;;;;;;7.93;5.30;;;;;;;6.40;53.63;100669.91;5039334;28;20041;-71
2022/11/28 08:31:29;;;;;;;8.45;5.75;;;;;;;6.41;53.47;100656.22;5045082;28;20065;-74
2022/11/28 08:34:00;;;;;;;7.70;5.60;;;;;;;6.41;53.64;100658.94;5048579;28;20041;-73
2022/11/28 08:36:28;;;;;;;9.35;5.90;;;;;;;6.42;53.74;100662.53;5043988;28;20044;-73
2022/11/28 08:38:57;;;;;;;8.40;6.00;;;;;;;6.42;53.45;100665.25;5044659;28;20413;-73
2022/11/28 08:41:45;;;;;;;9.55;6.47;;;;;;;6.41;53.75;100667.09;5042929;28;20601;-72
2022/11/28 08:44:13;;;;;;;9.43;7.15;;;;;;;6.42;53.65;100666.13;5020786;28;20302;-71
2022/11/28 08:46:41;;;;;;;7.95;6.60;;;;;;;6.43;53.45;100658.84;5035817;28;20092;-71
2022/11/28 08:49:10;;;;;;;9.45;6.90;;;;;;;6.44;53.59;100658.72;5048931;28;20048;-71
2022/11/28 08:51:38;;;;;;;8.77;6.65;;;;;;;6.42;53.37;100660.69;5045286;28;20116;-73
2022/11/28 08:54:06;;;;;;;10.70;7.30;;;;;;;6.43;53.76;100666.97;5047144;28;20048;-73
2022/11/28 08:56:34;;;;;;;9.88;7.28;;;;;;;6.44;53.75;100671.44;5044785;28;20041;-73
2022/11/28 08:59:03;;;;;;;10.38;7.28;;;;;;;6.45;53.52;100674.03;5044583;28;20067;-72
2022/11/28 09:01:31;;;;;;;8.98;6.95;;;;;;;6.43;53.59;100681.44;5047114;28;20128;-72
2022/11/28 09:03:59;;;;;;;9.63;7.22;;;;;;;6.45;53.36;100670.44;5047495;28;20123;-73
2022/11/28 09:06:28;;;;;;;10.10;7.13;;;;;;;6.45;53.62;100670.44;5046334;28;20052;-73
2022/11/28 09:08:57;;;;;;;11.13;7.40;;;;;;;6.44;53.80;100669.59;5047947;28;20037;-73
2022/11/28 09:11:25;;;;;;;10.80;7.55;;;;;;;6.45;53.63;100675.88;5049522;28;20064;-73
2022/11/28 09:13:54;;;;;;;11.07;7.07;;;;;;;6.45;53.71;100674.03;5046196;28;20048;-73
2022/11/28 09:16:22;;;;;;;8.88;6.93;;;;;;;6.45;53.57;100679.47;5047421;28;20175;-72
2022/11/28 09:18:51;;;;;;;8.93;6.88;;;;;;;6.45;53.75;100674.03;5047535;28;20040;-71
2022/11/28 09:21:19;;;;;;;9.50;7.30;;;;;;;6.45;53.52;100675.88;5040379;28;20371;-72
2022/11/28 09:23:48;;;;;;;10.07;7.55;;;;;;;6.48;53.61;100685.66;5043576;28;20284;-72
2022/11/28 09:26:18;;;;;;;10.45;7.95;;;;;;;6.48;53.62;100683.81;5046531;28;20106;-74
2022/11/28 09:28:46;;;;;;;10.60;7.80;;;;;;;6.47;53.70;100687.50;5046870;28;20048;-73
2022/11/28 09:31:15;;;;;;;10.57;7.85;;;;;;;6.48;53.47;100691.09;5048168;28;20037;-73
2022/11/28 09:33:44;;;;;;;12.00;8.13;;;;;;;6.47;53.94;100695.66;5046413;28;20049;-72
2022/11/28 09:36:17;;;;;;;11.82;8.57;;;;;;;6.49;53.92;100696.44;5046223;28;20049;-72
2022/11/28 09:38:45;;;;;;;;;;;;;;;6.25;54.66;100707.25;5042577;28;20144;-73
2022/11/28 09:41:49;;;;;;;9.50;6.63;;;;;;;6.47;54.27;100698.38;5043699;28;20255;-72
2022/11/28 09:44:22;;;;;;;10.73;7.22;;;;;;;6.48;53.83;100702.84;5038798;28;20103;-73
2022/11/28 09:46:54;;;;;;;12.60;7.22;;;;;;;6.50;53.92;100702.75;5044475;28;20056;-73
2022/11/28 09:49:30;;;;;;;9.82;7.30;;;;;;;6.50;53.81;100698.16;5048516;28;20076;-73
2022/11/28 09:52:17;;;;;;;9.52;6.32;;;;;;;6.52;53.90;100701.66;5040712;28;20072;-73
2022/11/28 09:54:52;;;;;;;9.13;6.65;;;;;;;6.52;53.96;100696.22;5022967;28;20132;-73
2022/11/28 09:57:29;;;;;;;10.25;6.50;;;;;;;6.54;54.16;100701.50;5045991;28;20041;-73
2022/11/28 10:02:45;;;;;;;9.00;5.82;;;;;;;6.55;53.91;100700.53;4936312;28;20039;-72
2022/11/28 10:05:23;;;;;;;8.60;6.10;;;;;;;6.56;54.10;100694.13;4952872;28;20086;-72
2022/11/28 10:08:10;;;;;;;9.75;6.35;;;;;;;6.58;54.39;100703.91;4971798;28;20117;-72
2022/11/28 10:10:47;;;;;;;8.52;5.18;;;;;;;6.57;54.14;100696.72;4980573;28;20058;-73
2022/11/28 10:13:21;;;;;;;8.70;5.85;;;;;;;6.60;54.16;100698.38;4990548;28;20051;-73
2022/11/28 10:15:57;;;;;;;8.75;4.97;;;;;;;6.61;54.45;100700.13;4973703;28;20049;-72
2022/11/28 10:18:35;;;;;;;6.70;4.72;;;;;;;6.62;54.60;100693.66;4982053;28;20049;-72
2022/11/28 10:21:10;;;;;;;8.60;5.43;;;;;;;6.61;54.16;100690.06;4959186;28;20061;-73
2022/11/28 10:23:42;;;;;;;7.60;5.20;;;;;;;6.62;54.00;100688.22;5020547;28;20043;-72
2022/11/28 10:26:18;;;;;;;7.73;5.70;;;;;;;6.62;54.18;100690.94;4994744;28;20518;-73
2022/11/28 10:28:50;;;;;;;8.52;5.38;;;;;;;6.64;53.98;100689.00;4976152;28;20301;-73
2022/11/28 10:31:26;;;;;;;7.00;5.43;;;;;;;6.62;54.16;100691.81;4969036;28;20394;-73
2022/11/28 10:34:01;;;;;;;8.15;5.63;;;;;;;6.64;54.16;100684.41;4977874;28;20059;-73
2022/11/28 10:36:33;;;;;;;8.65;5.45;;;;;;;6.64;53.93;100686.28;4967535;28;20404;-72
2022/11/28 10:39:08;;;;;;;;;;;;;;;6.39;54.91;100679.91;4979966;28;20050;-72
2022/11/28 10:41:44;;;;;;;8.63;5.40;;;;;;;6.58;54.26;100681.28;5034914;28;19928;-72
2022/11/28 10:44:18;;;;;;;7.82;5.38;;;;;;;6.60;54.27;100682.94;4986732;28;20047;-73
2022/11/28 10:46:58;;;;;;;7.93;5.25;;;;;;;6.60;54.27;100677.50;4966839;28;20047;-72
2022/11/28 10:49:35;;;;;;;6.88;5.40;;;;;;;6.59;54.55;100680.31;4966316;28;20077;-72
2022/11/28 10:52:11;;;;;;;9.27;5.43;;;;;;;6.60;54.58;100680.22;5008203;28;20071;-73
2022/11/28 10:54:56;;;;;;;8.52;5.68;;;;;;;6.60;54.38;100682.94;4965457;28;20414;-73
2022/11/28 10:57:30;;;;;;;7.75;5.00;;;;;;;6.59;54.50;100681.19;4974886;28;20052;-73
2022/11/28 11:00:07;;;;;;;8.07;5.38;;;;;;;6.62;54.48;100685.50;4976396;28;20046;-72
2022/11/28 11:02:40;;;;;;;8.90;5.70;;;;;;;6.61;54.30;100681.91;4975347;28;20053;-72
2022/11/28 11:05:11;;;;;;;;;;;;;;;6.37;55.43;100679.16;4975149;28;20077;-72
2022/11/28 11:07:46;;;;;;;7.32;4.85;;;;;;;6.59;54.92;100683.91;4981782;28;19930;-73
2022/11/28 11:10:16;;;;;;;9.38;5.65;;;;;;;6.62;54.25;100690.94;5002623;28;20584;-72
2022/11/28 11:12:45;;;;;;;8.88;4.93;;;;;;;6.63;54.22;100685.41;4967099;28;20038;-72
2022/11/28 11:15:21;;;;;;;9.35;5.50;;;;;;;6.65;54.80;100686.16;4993811;28;20047;-72
2022/11/28 11:17:50;;;;;;;7.57;5.55;;;;;;;6.62;54.35;100672.78;4970578;28;20483;-72
2022/11/28 11:20:35;;;;;;;8.00;5.40;;;;;;;6.64;54.73;100673.53;4987632;28;20090;-71
2022/11/28 11:23:12;;;;;;;10.20;6.30;;;;;;;6.65;54.91;100672.56;4969744;28;20035;-72
2022/11/28 11:25:49;;;;;;;8.20;5.45;;;;;;;6.65;54.80;100668.97;4995184;28;20129;-73
2022/11/28 11:28:40;;;;;;;8.88;5.47;;;;;;;6.63;54.97;100670.94;4988941;28;20081;-73
2022/11/28 11:31:19;;;;;;;8.95;5.47;;;;;;;6.64;54.79;100673.53;4976256;28;20046;-73
2022/11/28 11:33:48;;;;;;;10.55;6.47;;;;;;;6.60;54.35;100677.50;4993268;28;20499;-72
2022/11/28 11:36:24;;;;;;;8.75;5.65;;;;;;;6.64;54.70;100676.25;5007248;28;20078;-72
2022/11/28 11:39:03;;;;;;;9.05;6.05;;;;;;;6.60;54.52;100672.06;4963741;28;20069;-73
2022/11/28 11:41:32;;;;;;;8.77;5.55;;;;;;;6.61;54.33;100673.75;4970714;28;20042;-74
2022/11/28 11:44:29;;;;;;;8.43;6.00;;;;;;;6.65;54.97;100677.13;4988943;28;20221;-72
2022/11/28 11:47:02;;;;;;;7.90;5.75;;;;;;;6.63;55.00;100679.09;4964652;28;20078;-74
2022/11/28 11:49:32;;;;;;;7.68;4.65;;;;;;;6.65;54.66;100683.44;4966656;28;20043;-75
2022/11/28 11:52:02;;;;;;;8.10;5.80;;;;;;;6.63;54.45;100682.69;4967444;28;20415;-74
2022/11/28 11:54:30;;;;;;;9.20;6.18;;;;;;;6.62;54.65;100685.50;4967362;28;20038;-74
2022/11/28 11:56:59;;;;;;;8.93;6.10;;;;;;;6.62;54.83;100685.50;4967334;28;20085;-75
2022/11/28 11:59:51;;;;;;;9.35;6.18;;;;;;;6.60;55.12;100687.50;4965776;28;20070;-74